Time;durP1;ratioP1;P1;durP2;ratioP2;P2;SDS_P1;SDS_P2;PMS_P1;PMS_P2;Temp;Humidity;BMP_temperature;BMP_pressure;BME280_temperature;BME280_humidity;BME280_pressure;Samples;Min_cycle;Max_cycle;Signal;HPM_P1;HPM_P2
2024/04/09 00:00:39;;;;;;;3.50;2.03;;;25.80;42.50;;;;;;6712261;25;80904;-54
2024/04/09 00:03:39;;;;;;;3.30;1.80;;;25.80;42.40;;;;;;6714218;25;79169;-53
2024/04/09 00:06:40;;;;;;;3.05;1.60;;;25.80;42.50;;;;;;6713134;25;79095;-52
2024/04/09 00:09:44;;;;;;;3.65;2.08;;;25.80;42.60;;;;;;6713001;25;79108;-54
2024/04/09 00:12:44;;;;;;;4.60;1.85;;;25.80;42.70;;;;;;6712700;25;79337;-52
2024/04/09 00:15:45;;;;;;;3.15;1.80;;;25.80;42.70;;;;;;6712497;25;79024;-53
2024/04/09 00:18:45;;;;;;;2.50;1.60;;;25.80;42.90;;;;;;6711947;25;80614;-52
2024/04/09 00:21:47;;;;;;;1.90;1.40;;;25.80;42.90;;;;;;6713041;25;79275;-50
2024/04/09 00:24:48;;;;;;;4.68;1.67;;;25.80;42.90;;;;;;6712219;25;78813;-54
2024/04/09 00:27:54;;;;;;;2.60;1.52;;;25.80;43.00;;;;;;6712465;25;78822;-53
2024/04/09 00:30:55;;;;;;;10.23;1.70;;;25.80;43.10;;;;;;6698947;25;79193;-53
2024/04/09 00:33:55;;;;;;;2.47;1.55;;;25.80;43.00;;;;;;6709927;25;78656;-52
2024/04/09 00:36:56;;;;;;;2.22;1.58;;;25.80;43.00;;;;;;6711606;25;79521;-57
2024/04/09 00:39:56;;;;;;;5.88;2.10;;;25.80;42.90;;;;;;6712206;25;78810;-58
2024/04/09 00:42:58;;;;;;;2.33;1.50;;;25.80;43.10;;;;;;6686876;25;78604;-58
2024/04/09 00:45:58;;;;;;;2.72;1.83;;;25.80;43.00;;;;;;6687795;25;78746;-58
2024/04/09 00:48:59;;;;;;;2.83;1.83;;;25.80;43.00;;;;;;6711667;25;84874;-59
2024/04/09 00:51:59;;;;;;;1.63;1.42;;;25.70;42.80;;;;;;6710029;25;79134;-58
2024/04/09 00:55:02;;;;;;;2.75;1.63;;;25.70;42.80;;;;;;6711262;25;79229;-57
2024/04/09 00:58:03;;;;;;;2.45;1.60;;;25.70;42.80;;;;;;6711625;25;78592;-59
2024/04/09 01:01:04;;;;;;;1.95;1.58;;;25.70;43.00;;;;;;6706975;25;78931;-59
2024/04/09 01:04:04;;;;;;;2.20;1.35;;;25.70;42.90;;;;;;6710890;25;79149;-58
2024/04/09 01:07:05;;;;;;;3.15;1.73;;;25.70;42.90;;;;;;6711138;25;81467;-57
2024/04/09 01:10:05;;;;;;;3.20;1.67;;;25.70;43.10;;;;;;6704855;25;80101;-56
2024/04/09 01:13:06;;;;;;;2.85;1.85;;;25.70;43.10;;;;;;6694693;25;79048;-58
2024/04/09 01:16:07;;;;;;;4.80;2.00;;;25.70;42.90;;;;;;6711403;25;79084;-54
2024/04/09 01:19:08;;;;;;;5.35;2.17;;;25.70;43.00;;;;;;6688742;25;79612;-51
2024/04/09 01:22:09;;;;;;;7.28;1.67;;;25.70;43.00;;;;;;6710488;25;79300;-54
2024/04/09 01:25:10;;;;;;;2.38;1.55;;;25.70;43.00;;;;;;6710659;25;80289;-53
2024/04/09 01:28:11;;;;;;;2.65;1.50;;;25.70;43.10;;;;;;6710440;25;79038;-53
2024/04/09 01:31:15;;;;;;;4.35;1.77;;;25.70;43.10;;;;;;6710761;25;79187;-51
2024/04/09 01:34:16;;;;;;;2.78;1.60;;;25.70;43.30;;;;;;6710378;25;79414;-62
2024/04/09 01:37:17;;;;;;;5.50;2.17;;;25.70;43.10;;;;;;6684284;25;80080;-58
2024/04/09 01:40:18;;;;;;;1.90;1.20;;;25.70;43.20;;;;;;6710339;25;80294;-58
2024/04/09 01:43:19;;;;;;;2.10;1.50;;;25.70;43.90;;;;;;6708292;25;78867;-59
2024/04/09 01:46:19;;;;;;;2.28;1.40;;;25.70;43.30;;;;;;6712401;25;78970;-59
2024/04/09 01:49:20;;;;;;;2.13;1.58;;;25.70;43.30;;;;;;6712895;25;79432;-59
2024/04/09 01:52:22;;;;;;;4.10;1.63;;;25.70;43.40;;;;;;6714951;25;79129;-51
2024/04/09 01:55:23;;;;;;;2.53;1.80;;;25.70;43.40;;;;;;6712958;25;79137;-54
2024/04/09 01:58:24;;;;;;;2.08;1.73;;;25.70;43.50;;;;;;6715223;25;79542;-53
2024/04/09 02:01:25;;;;;;;2.60;1.63;;;25.70;43.70;;;;;;6715473;25;79681;-49
2024/04/09 02:04:25;;;;;;;2.47;1.65;;;25.70;43.60;;;;;;6714135;25;78982;-49
2024/04/09 02:07:26;;;;;;;3.40;1.60;;;25.70;44.00;;;;;;6714705;25;78817;-52
2024/04/09 02:10:27;;;;;;;3.25;1.85;;;25.70;43.70;;;;;;6713996;25;78934;-57
2024/04/09 02:13:29;;;;;;;3.50;1.48;;;25.70;44.00;;;;;;6714000;25;79043;-58
2024/04/09 02:16:31;;;;;;;2.75;1.60;;;25.70;44.00;;;;;;6714152;25;81297;-57
2024/04/09 02:19:32;;;;;;;2.22;1.25;;;25.70;44.30;;;;;;6714355;25;78847;-58
2024/04/09 02:22:32;;;;;;;2.50;1.40;;;25.70;44.50;;;;;;6716360;25;80098;-59
2024/04/09 02:25:33;;;;;;;3.20;1.83;;;25.70;44.60;;;;;;6711367;25;79260;-57
2024/04/09 02:28:33;;;;;;;1.58;1.15;;;25.80;44.50;;;;;;6714675;25;82387;-58
2024/04/09 02:31:34;;;;;;;2.90;1.50;;;25.80;44.70;;;;;;6710256;25;85062;-57
2024/04/09 02:34:35;;;;;;;2.75;1.40;;;25.80;44.30;;;;;;6713714;25;79488;-57
2024/04/09 02:37:36;;;;;;;4.53;1.50;;;25.70;44.30;;;;;;6710748;25;79380;-57
2024/04/09 02:40:37;;;;;;;3.65;1.58;;;25.70;44.50;;;;;;6698983;25;79744;-58
2024/04/09 02:43:37;;;;;;;2.63;1.65;;;25.70;44.30;;;;;;6715366;25;78789;-57
2024/04/09 02:46:38;;;;;;;3.38;1.50;;;25.70;44.40;;;;;;6714840;25;79850;-56
2024/04/09 02:49:38;;;;;;;2.88;1.70;;;25.70;44.60;;;;;;6712630;25;78976;-55
2024/04/09 02:52:39;;;;;;;2.75;1.48;;;25.70;44.60;;;;;;6713881;25;81671;-59
2024/04/09 02:55:39;;;;;;;3.05;1.25;;;25.70;44.60;;;;;;6709298;25;84124;-61
2024/04/09 02:58:40;;;;;;;8.77;1.60;;;25.80;44.50;;;;;;6713885;25;79583;-60
2024/04/09 03:01:40;;;;;;;3.15;1.70;;;25.70;44.20;;;;;;6710256;25;78789;-59
2024/04/09 03:04:41;;;;;;;6.00;1.88;;;25.70;44.20;;;;;;6713988;25;81129;-56
2024/04/09 03:07:42;;;;;;;4.75;2.00;;;25.80;44.50;;;;;;6709837;25;78927;-56
2024/04/09 03:10:43;;;;;;;3.55;1.52;;;25.70;44.30;;;;;;6710975;25;78811;-57
2024/04/09 03:13:44;;;;;;;1.98;1.27;;;25.70;44.00;;;;;;6713229;25;79088;-57
2024/04/09 03:16:45;;;;;;;2.65;1.60;;;25.70;44.10;;;;;;6709534;25;79487;-57
2024/04/09 03:19:45;;;;;;;4.57;1.63;;;25.70;44.20;;;;;;6712780;25;79178;-56
2024/04/09 03:22:46;;;;;;;6.32;1.55;;;25.80;44.20;;;;;;6706957;25;79033;-56
2024/04/09 03:25:46;;;;;;;2.78;1.40;;;25.70;44.60;;;;;;6714133;25;79546;-59
2024/04/09 03:28:47;;;;;;;3.40;1.77;;;25.70;44.70;;;;;;6713063;25;79141;-57
2024/04/09 03:31:47;;;;;;;3.58;1.63;;;25.80;44.50;;;;;;6711186;25;80743;-57
2024/04/09 03:34:48;;;;;;;2.67;1.58;;;25.70;44.60;;;;;;6712523;25;80276;-54
2024/04/09 03:37:48;;;;;;;3.80;1.70;;;25.70;44.70;;;;;;6712836;25;78759;-58
2024/04/09 03:40:49;;;;;;;2.78;1.92;;;25.70;44.70;;;;;;6713374;25;79247;-54
2024/04/09 03:43:50;;;;;;;3.15;2.25;;;25.70;44.70;;;;;;6711173;25;80297;-51
2024/04/09 03:46:50;;;;;;;5.07;1.95;;;25.70;44.70;;;;;;6712403;25;79512;-53
2024/04/09 03:49:51;;;;;;;6.10;2.03;;;25.70;44.80;;;;;;6711927;25;79200;-53
2024/04/09 03:52:54;;;;;;;3.95;2.00;;;25.70;44.90;;;;;;6713281;25;78989;-49
2024/04/09 03:55:55;;;;;;;5.30;2.05;;;25.70;44.80;;;;;;6712353;25;79337;-49
2024/04/09 03:58:55;;;;;;;4.18;2.60;;;25.70;45.00;;;;;;6712940;25;79144;-50
2024/04/09 04:01:56;;;;;;;8.98;2.20;;;25.70;45.00;;;;;;6711033;25;79229;-58
2024/04/09 04:04:56;;;;;;;3.53;2.55;;;25.70;45.20;;;;;;6713238;25;84067;-52
2024/04/09 04:07:57;;;;;;;4.13;2.53;;;25.70;45.10;;;;;;6707051;25;86830;-55
2024/04/09 04:10:57;;;;;;;6.78;2.67;;;25.70;45.20;;;;;;6709614;25;80487;-56
2024/04/09 04:13:58;;;;;;;4.13;2.78;;;25.70;45.60;;;;;;6713326;25;79234;-57
2024/04/09 04:16:58;;;;;;;6.97;2.45;;;25.70;45.30;;;;;;6705892;25;82680;-58
2024/04/09 04:19:59;;;;;;;5.57;2.47;;;25.70;45.80;;;;;;6710261;25;81052;-49
2024/04/09 04:23:00;;;;;;;6.93;3.05;;;25.70;46.20;;;;;;6711216;25;79053;-51
2024/04/09 04:26:02;;;;;;;12.13;3.35;;;25.70;46.50;;;;;;6709794;25;78887;-52
2024/04/09 04:29:03;;;;;;;5.97;3.28;;;25.70;46.30;;;;;;6695558;25;82709;-49
2024/04/09 04:32:03;;;;;;;7.03;2.88;;;25.70;46.30;;;;;;6698530;25;81410;-52
2024/04/09 04:35:04;;;;;;;6.40;2.60;;;25.70;46.30;;;;;;6707720;25;79425;-51
2024/04/09 04:38:05;;;;;;;9.13;3.17;;;25.70;46.30;;;;;;6710423;25;79087;-54
2024/04/09 04:41:05;;;;;;;9.50;2.95;;;25.70;46.30;;;;;;6708052;25;79433;-57
2024/04/09 04:44:06;;;;;;;15.60;2.67;;;25.70;46.50;;;;;;6704235;25;78817;-57
2024/04/09 04:47:06;;;;;;;7.90;2.85;;;25.70;47.20;;;;;;6710998;25;79252;-56
2024/04/09 04:50:07;;;;;;;7.82;2.97;;;25.70;46.70;;;;;;6712436;25;79762;-59
2024/04/09 04:53:07;;;;;;;9.77;3.38;;;25.70;46.60;;;;;;6710494;25;81046;-57
2024/04/09 04:56:08;;;;;;;7.68;2.80;;;25.70;46.70;;;;;;6709757;25;78810;-57
2024/04/09 04:59:09;;;;;;;7.50;3.75;;;25.70;47.00;;;;;;6710129;25;79374;-59
2024/04/09 05:02:09;;;;;;;12.10;3.05;;;25.70;46.90;;;;;;6708736;25;78986;-59
2024/04/09 05:05:12;;;;;;;5.85;2.78;;;25.70;46.90;;;;;;6709616;25;79219;-59
2024/04/09 05:08:13;;;;;;;10.10;3.22;;;25.70;46.90;;;;;;6709532;25;80770;-58
2024/04/09 05:11:14;;;;;;;7.43;3.10;;;25.70;47.00;;;;;;6710834;25;78881;-58
2024/04/09 05:14:14;;;;;;;9.45;2.78;;;25.70;46.90;;;;;;6710794;25;78991;-58
2024/04/09 05:17:15;;;;;;;5.80;3.15;;;25.80;46.90;;;;;;6709485;25;79735;-58
2024/04/09 05:20:16;;;;;;;7.15;2.90;;;25.80;46.80;;;;;;6710289;25;80420;-59
2024/04/09 05:23:16;;;;;;;8.52;3.45;;;25.80;46.80;;;;;;6698545;25;79201;-58
2024/04/09 05:26:17;;;;;;;10.40;3.58;;;25.90;46.80;;;;;;6706338;25;80278;-56
2024/04/09 05:29:18;;;;;;;11.13;3.15;;;25.80;47.00;;;;;;6688610;25;83771;-58
2024/04/09 05:32:18;;;;;;;5.03;3.03;;;25.80;47.00;;;;;;6713160;25;79281;-60
2024/04/09 05:35:19;;;;;;;11.15;3.35;;;25.80;47.00;;;;;;6715487;25;80074;-60
2024/04/09 05:38:20;;;;;;;6.00;2.95;;;25.90;47.00;;;;;;6713299;25;79102;-61
2024/04/09 05:41:20;;;;;;;8.15;3.10;;;25.90;47.60;;;;;;6713284;25;79511;-60
2024/04/09 05:44:21;;;;;;;9.75;3.70;;;25.90;47.00;;;;;;6713446;25;79116;-65
2024/04/09 05:47:24;;;;;;;9.07;3.58;;;25.90;47.00;;;;;;6713276;25;78963;-64
2024/04/09 05:50:25;;;;;;;8.93;3.65;;;25.90;46.90;;;;;;6714003;25;79243;-65
2024/04/09 05:53:25;;;;;;;7.25;3.30;;;25.80;46.80;;;;;;6716480;25;79031;-64
2024/04/09 05:56:26;;;;;;;19.25;4.10;;;25.80;46.80;;;;;;6713122;25;80479;-65
2024/04/09 05:59:27;;;;;;;9.32;3.80;;;25.80;46.80;;;;;;6713590;25;78792;-65
2024/04/09 06:02:28;;;;;;;9.43;3.45;;;25.90;46.80;;;;;;6713976;25;80552;-66
2024/04/09 06:05:28;;;;;;;10.48;4.28;;;25.90;46.80;;;;;;6714150;25;79313;-65
2024/04/09 06:08:29;;;;;;;13.43;3.83;;;25.90;46.80;;;;;;6714520;25;78980;-66
2024/04/09 06:11:29;;;;;;;12.60;3.90;;;25.90;46.70;;;;;;6714507;25;79619;-65
2024/04/09 06:14:30;;;;;;;14.90;5.03;;;25.90;46.80;;;;;;6714087;25;79886;-66
2024/04/09 06:17:30;;;;;;;12.95;3.97;;;25.90;46.80;;;;;;6715046;25;79167;-65
2024/04/09 06:20:31;;;;;;;16.60;4.50;;;25.80;46.70;;;;;;6711692;25;79258;-65
2024/04/09 06:23:31;;;;;;;11.30;4.10;;;25.90;46.80;;;;;;6713979;25;81112;-65
2024/04/09 06:26:32;;;;;;;17.65;4.57;;;25.90;46.70;;;;;;6714023;25;81066;-60
2024/04/09 06:29:33;;;;;;;19.98;4.68;;;25.90;46.70;;;;;;6713507;25;79138;-60
2024/04/09 06:32:34;;;;;;;25.17;5.00;;;25.90;46.70;;;;;;6713651;25;78991;-59
2024/04/09 06:35:35;;;;;;;18.60;5.65;;;25.90;46.80;;;;;;6713333;25;79078;-59
2024/04/09 06:38:35;;;;;;;16.52;4.47;;;25.90;46.80;;;;;;6713279;25;79200;-59
2024/04/09 06:41:36;;;;;;;23.92;5.75;;;25.90;46.80;;;;;;6713346;25;79582;-60
2024/04/09 06:44:37;;;;;;;35.40;5.10;;;25.90;46.90;;;;;;6714342;25;80039;-53
2024/04/09 06:47:37;;;;;;;36.80;5.97;;;25.90;46.90;;;;;;6713046;25;78918;-52
2024/04/09 06:50:38;;;;;;;33.83;6.80;;;25.90;46.90;;;;;;6713392;25;79741;-52
2024/04/09 06:53:38;;;;;;;42.03;6.82;;;25.90;46.90;;;;;;6713237;25;82674;-53
2024/04/09 06:56:39;;;;;;;33.88;6.47;;;25.90;46.90;;;;;;6716308;25;80846;-49
2024/04/09 06:59:39;;;;;;;43.72;7.25;;;25.90;46.90;;;;;;6714133;25;81240;-51
2024/04/09 07:02:40;;;;;;;45.05;7.35;;;25.90;47.10;;;;;;6714358;25;80099;-51
2024/04/09 07:05:41;;;;;;;41.92;7.00;;;26.00;47.10;;;;;;6715138;25;79331;-52
2024/04/09 07:08:41;;;;;;;27.73;5.63;;;26.00;47.10;;;;;;6714123;25;79583;-53
2024/04/09 07:11:42;;;;;;;31.13;5.38;;;26.10;47.20;;;;;;6713699;25;79061;-50
2024/04/09 07:14:42;;;;;;;25.00;5.75;;;26.10;47.10;;;;;;6712873;25;79270;-50
2024/04/09 07:17:43;;;;;;;33.33;6.30;;;26.10;47.20;;;;;;6713324;25;79398;-53
2024/04/09 07:20:44;;;;;;;24.00;5.75;;;26.10;47.20;;;;;;6712791;25;78860;-48
2024/04/09 07:23:47;;;;;;;22.27;5.32;;;26.10;47.10;;;;;;6713508;25;79086;-59
2024/04/09 07:26:47;;;;;;;24.48;4.25;;;26.10;47.20;;;;;;6713035;25;80473;-59
2024/04/09 07:29:48;;;;;;;22.60;4.65;;;26.20;47.20;;;;;;6713887;25;79268;-60
2024/04/09 07:32:49;;;;;;;18.00;4.63;;;26.10;47.20;;;;;;6708655;25;79324;-60
2024/04/09 07:35:49;;;;;;;14.52;4.25;;;26.10;47.20;;;;;;6713783;25;78962;-59
2024/04/09 07:38:52;;;;;;;19.30;4.95;;;26.20;47.40;;;;;;6713834;25;82378;-60
2024/04/09 07:41:52;;;;;;;17.80;5.00;;;26.20;47.40;;;;;;6712986;25;78741;-60
2024/04/09 07:44:53;;;;;;;21.50;4.82;;;26.20;47.30;;;;;;6712459;25;81156;-59
2024/04/09 07:47:54;;;;;;;14.30;4.15;;;26.20;47.40;;;;;;6712196;25;79039;-59
2024/04/09 07:50:54;;;;;;;14.98;4.20;;;26.30;47.40;;;;;;6703913;25;79485;-59
2024/04/09 07:53:55;;;;;;;15.68;4.78;;;26.30;47.50;;;;;;6697543;25;78997;-59
2024/04/09 07:56:56;;;;;;;10.55;4.55;;;26.30;47.50;;;;;;6711007;25;79792;-59
2024/04/09 07:59:58;;;;;;;12.95;4.97;;;26.30;47.60;;;;;;6714529;25;80960;-59
2024/04/09 08:02:59;;;;;;;11.63;3.92;;;26.30;47.70;;;;;;6713642;25;81641;-59
2024/04/09 08:06:00;;;;;;;11.60;3.70;;;26.30;47.50;;;;;;6712357;25;78973;-60
2024/04/09 08:09:00;;;;;;;12.75;3.83;;;26.40;47.60;;;;;;6701006;25;79097;-61
2024/04/09 08:12:01;;;;;;;14.75;4.00;;;26.40;47.50;;;;;;6710439;25;79863;-60
2024/04/09 08:15:02;;;;;;;22.90;4.45;;;26.40;47.60;;;;;;6709042;25;81224;-62
2024/04/09 08:18:02;;;;;;;14.98;3.58;;;26.40;47.70;;;;;;6694755;25;81102;-57
2024/04/09 08:21:03;;;;;;;12.45;3.60;;;26.30;48.10;;;;;;6692967;25;85438;-59
2024/04/09 08:24:03;;;;;;;15.13;4.32;;;26.30;48.20;;;;;;6707376;25;80075;-58
2024/04/09 08:27:04;;;;;;;14.88;3.90;;;26.30;48.20;;;;;;6708760;25;79830;-57
2024/04/09 08:30:04;;;;;;;12.93;4.03;;;26.40;48.30;;;;;;6709556;25;80249;-57
2024/04/09 08:33:05;;;;;;;14.52;4.22;;;26.40;48.30;;;;;;6710597;25;79364;-55
2024/04/09 08:36:05;;;;;;;8.63;3.47;;;26.40;48.30;;;;;;6714246;25;79041;-63
2024/04/09 08:39:07;;;;;;;10.68;3.40;;;26.50;48.40;;;;;;6697100;25;79514;-63
2024/04/09 08:42:07;;;;;;;11.10;3.10;;;26.50;48.40;;;;;;6709972;25;78634;-63
2024/04/09 08:45:14;;;;;;;10.98;3.40;;;26.50;48.20;;;;;;6697257;25;79743;-63
2024/04/09 08:48:15;;;;;;;13.75;3.33;;;26.60;48.00;;;;;;6708435;25;80123;-62
2024/04/09 08:51:15;;;;;;;16.13;3.42;;;26.60;47.90;;;;;;6710056;25;79161;-62
2024/04/09 08:54:16;;;;;;;8.82;3.10;;;26.60;47.80;;;;;;6694482;25;81758;-62
2024/04/09 08:57:17;;;;;;;8.25;2.95;;;26.70;47.30;;;;;;6712793;25;78783;-64
2024/04/09 09:00:18;;;;;;;5.70;2.30;;;26.70;47.10;;;;;;6713742;25;82905;-62
2024/04/09 09:03:19;;;;;;;7.18;2.50;;;26.70;46.80;;;;;;6710207;25;80456;-62
2024/04/09 09:06:19;;;;;;;7.03;2.00;;;26.70;46.00;;;;;;6712331;25;78790;-61
2024/04/09 09:09:20;;;;;;;4.13;2.35;;;26.70;45.60;;;;;;6714017;25;80541;-62
2024/04/09 09:12:20;;;;;;;7.65;2.50;;;26.80;45.70;;;;;;6708199;25;80128;-62
2024/04/09 09:15:22;;;;;;;7.82;2.38;;;26.80;45.70;;;;;;6714160;25;79300;-61
2024/04/09 09:18:25;;;;;;;7.03;2.53;;;26.80;45.50;;;;;;6706526;25;78695;-61
2024/04/09 09:21:26;;;;;;;8.27;2.78;;;26.80;45.30;;;;;;6710421;25;79409;-62
2024/04/09 09:24:28;;;;;;;5.70;2.10;;;26.90;45.40;;;;;;6706139;25;79474;-61
2024/04/09 09:27:28;;;;;;;9.05;2.47;;;26.90;45.40;;;;;;6709235;25;79281;-65
2024/04/09 09:30:29;;;;;;;7.00;2.60;;;26.90;44.80;;;;;;6710072;25;79478;-60
2024/04/09 09:33:30;;;;;;;6.05;2.25;;;27.00;44.90;;;;;;6709250;25;78839;-58
2024/04/09 09:36:30;;;;;;;10.77;2.05;;;27.00;44.10;;;;;;6704190;25;79324;-60
2024/04/09 09:39:32;;;;;;;4.05;1.80;;;27.00;43.60;;;;;;6705382;25;82664;-60
2024/04/09 09:42:32;;;;;;;6.13;1.90;;;27.00;44.10;;;;;;6708561;25;83209;-60
2024/04/09 09:45:33;;;;;;;9.95;1.77;;;27.10;44.30;;;;;;6703259;25;80257;-60
2024/04/09 09:48:33;;;;;;;5.03;1.98;;;27.10;44.40;;;;;;6713415;25;79159;-61
2024/04/09 09:51:34;;;;;;;5.85;2.58;;;27.10;44.50;;;;;;6712014;25;84477;-62
2024/04/09 09:54:34;;;;;;;3.47;1.63;;;27.20;44.60;;;;;;6709746;25;79053;-61
2024/04/09 09:57:35;;;;;;;11.00;2.75;;;27.20;44.70;;;;;;6712922;25;79418;-62
2024/04/09 10:00:35;;;;;;;7.82;2.20;;;27.20;44.50;;;;;;6699850;25;79726;-62
2024/04/09 10:03:36;;;;;;;4.10;1.95;;;27.20;44.00;;;;;;6705844;25;79266;-63
2024/04/09 10:06:36;;;;;;;5.35;2.13;;;27.20;44.30;;;;;;6703959;25;78868;-61
2024/04/09 10:09:37;;;;;;;3.17;1.52;;;27.20;44.40;;;;;;6714490;25;79334;-64
2024/04/09 10:12:38;;;;;;;6.95;2.13;;;27.20;43.70;;;;;;6715827;25;79071;-64
2024/04/09 10:15:38;;;;;;;10.80;2.20;;;27.20;43.20;;;;;;6715558;25;78734;-65
2024/04/09 10:18:40;;;;;;;5.53;1.77;;;27.20;43.60;;;;;;6715152;25;79994;-65
2024/04/09 10:21:41;;;;;;;14.45;2.55;;;27.20;43.90;;;;;;6711159;25;79211;-68
2024/04/09 10:24:42;;;;;;;5.90;1.95;;;27.20;44.10;;;;;;6711739;25;78786;-64
2024/04/09 10:27:43;;;;;;;6.03;2.10;;;27.20;44.20;;;;;;6712574;25;82022;-65
2024/04/09 10:30:43;;;;;;;7.90;2.42;;;27.20;44.20;;;;;;6712997;25;79268;-66
2024/04/09 10:33:44;;;;;;;9.82;2.20;;;27.20;44.30;;;;;;6712062;25;79000;-66
2024/04/09 10:36:44;;;;;;;8.60;2.33;;;27.20;44.40;;;;;;6712144;26;86982;-67
2024/04/09 10:39:45;;;;;;;4.63;1.90;;;27.20;44.30;;;;;;6707108;25;79188;-66
2024/04/09 10:42:46;;;;;;;5.97;2.15;;;27.20;44.40;;;;;;6710952;25;79849;-67
2024/04/09 10:45:46;;;;;;;7.07;2.78;;;27.20;44.40;;;;;;6714990;25;79517;-60
2024/04/09 10:48:47;;;;;;;5.85;2.20;;;27.20;44.40;;;;;;6711010;25;79213;-60
2024/04/09 10:51:47;;;;;;;7.50;2.50;;;27.20;44.40;;;;;;6711252;25;78949;-61
2024/04/09 10:54:48;;;;;;;6.30;1.98;;;27.20;44.40;;;;;;6709684;25;79022;-59
2024/04/09 10:57:48;;;;;;;6.95;2.30;;;27.20;44.40;;;;;;6709303;25;82594;-60
2024/04/09 11:00:49;;;;;;;7.28;1.90;;;27.20;44.40;;;;;;6696509;25;79274;-60
2024/04/09 11:03:49;;;;;;;9.25;2.10;;;27.30;44.50;;;;;;6705481;25;78856;-55
2024/04/09 11:06:50;;;;;;;4.65;2.10;;;27.30;44.70;;;;;;6710503;25;84664;-51
2024/04/09 11:09:52;;;;;;;6.20;2.00;;;27.30;44.70;;;;;;6710568;25;85280;-54
2024/04/09 11:12:52;;;;;;;7.55;2.30;;;27.30;44.80;;;;;;6714143;25;79473;-55
2024/04/09 11:15:53;;;;;;;12.77;2.40;;;27.30;45.20;;;;;;6674680;25;83314;-57
2024/04/09 11:18:53;;;;;;;6.30;2.22;;;27.30;45.30;;;;;;6675036;25;79269;-53
2024/04/09 11:21:54;;;;;;;10.55;2.30;;;27.30;45.80;;;;;;6687925;25;80205;-51
2024/04/09 11:24:54;;;;;;;4.93;2.45;;;27.40;46.10;;;;;;6706393;25;88446;-54
2024/04/09 11:27:55;;;;;;;11.90;2.83;;;27.40;46.40;;;;;;6672442;25;83758;-49
2024/04/09 11:30:58;;;;;;;8.05;2.42;;;27.40;46.50;;;;;;6677546;25;86794;-55
2024/04/09 11:33:59;;;;;;;9.38;2.30;;;27.40;46.30;;;;;;6675040;25;84084;-52
2024/04/09 11:36:59;;;;;;;7.97;2.17;;;27.50;46.50;;;;;;6708538;25;84667;-60
2024/04/09 11:40:00;;;;;;;10.85;2.60;;;27.50;46.50;;;;;;6706547;25;83367;-56
2024/04/09 11:43:01;;;;;;;11.85;3.42;;;27.60;46.60;;;;;;6705223;25;79968;-56
2024/04/09 11:46:01;;;;;;;20.55;3.20;;;27.60;46.70;;;;;;6701884;25;87718;-56
2024/04/09 11:49:02;;;;;;;11.07;3.17;;;27.60;46.70;;;;;;6707862;25;78823;-53
2024/04/09 11:52:02;;;;;;;16.33;3.08;;;27.60;46.70;;;;;;6709413;25;88248;-55
2024/04/09 11:55:03;;;;;;;20.60;4.55;;;27.60;46.70;;;;;;6710709;25;78833;-55
2024/04/09 11:58:05;;;;;;;17.98;3.55;;;27.60;46.70;;;;;;6708221;25;79118;-55
2024/04/09 12:01:05;;;;;;;25.30;3.85;;;27.70;46.60;;;;;;6707322;25;80092;-53
2024/04/09 12:04:07;;;;;;;14.30;3.25;;;27.60;46.40;;;;;;6705963;25;82999;-52
2024/04/09 12:07:09;;;;;;;23.05;5.35;;;27.60;46.30;;;;;;6707844;25;79797;-54
2024/04/09 12:10:10;;;;;;;14.70;3.50;;;27.60;46.10;;;;;;6706776;25;79166;-57
2024/04/09 12:13:10;;;;;;;25.30;4.40;;;27.60;45.90;;;;;;6708176;25;80319;-57
2024/04/09 12:16:11;;;;;;;16.83;3.40;;;27.60;46.00;;;;;;6706912;25;79943;-55
2024/04/09 12:19:12;;;;;;;18.08;4.00;;;27.60;46.00;;;;;;6701833;25;78754;-56
2024/04/09 12:22:14;;;;;;;16.40;3.38;;;27.60;45.80;;;;;;6713324;25;78782;-52
2024/04/09 12:25:15;;;;;;;18.35;3.30;;;27.60;46.00;;;;;;6708500;25;83676;-52
2024/04/09 12:28:15;;;;;;;11.95;2.92;;;27.60;45.80;;;;;;6713198;25;79687;-54
2024/04/09 12:31:16;;;;;;;10.02;2.95;;;27.60;45.60;;;;;;6711669;25;81311;-53
2024/04/09 12:34:16;;;;;;;12.27;2.17;;;27.60;45.30;;;;;;6713204;25;79210;-54
2024/04/09 12:37:17;;;;;;;7.35;2.25;;;27.60;45.70;;;;;;6711770;25;80100;-52
2024/04/09 12:40:17;;;;;;;8.05;2.88;;;27.60;44.90;;;;;;6712391;25;78936;-51
2024/04/09 12:43:18;;;;;;;8.80;2.47;;;27.60;44.80;;;;;;6712986;25;79751;-54
2024/04/09 12:46:18;;;;;;;7.85;2.35;;;27.60;44.70;;;;;;6710057;25;80620;-55
2024/04/09 12:49:19;;;;;;;4.55;2.10;;;27.60;44.60;;;;;;6708343;25;80061;-55
2024/04/09 12:52:20;;;;;;;7.60;2.10;;;27.60;44.40;;;;;;6707306;25;80203;-60
2024/04/09 12:55:20;;;;;;;3.33;2.05;;;27.60;44.10;;;;;;6707386;25;79212;-61
2024/04/09 12:58:21;;;;;;;5.25;2.20;;;27.60;43.90;;;;;;6709971;25;79038;-61
2024/04/09 13:01:21;;;;;;;3.13;1.75;;;27.60;43.80;;;;;;6707873;25;79218;-61
2024/04/09 13:04:22;;;;;;;5.75;1.95;;;27.60;43.80;;;;;;6712018;25;80659;-61
2024/04/09 13:07:23;;;;;;;6.93;2.00;;;27.60;43.70;;;;;;6712331;25;78951;-61
2024/04/09 13:10:23;;;;;;;4.30;2.17;;;27.60;43.60;;;;;;6708980;25;79414;-60
2024/04/09 13:13:24;;;;;;;7.45;2.13;;;27.60;43.60;;;;;;6704506;25;82018;-58
2024/04/09 13:16:24;;;;;;;5.88;2.42;;;27.60;43.50;;;;;;6706045;25;79562;-63
2024/04/09 13:19:25;;;;;;;7.00;2.15;;;27.60;44.10;;;;;;6712730;25;79248;-60
2024/04/09 13:22:25;;;;;;;5.13;1.67;;;27.60;43.90;;;;;;6712575;25;80568;-62
2024/04/09 13:25:26;;;;;;;8.32;2.65;;;27.60;44.60;;;;;;6712481;25;82095;-63
2024/04/09 13:28:26;;;;;;;8.38;2.85;;;27.60;44.30;;;;;;6704651;25;78905;-62
2024/04/09 13:31:27;;;;;;;14.57;2.25;;;27.60;44.80;;;;;;6705950;25;79061;-63
2024/04/09 13:34:29;;;;;;;9.77;2.10;;;27.60;44.70;;;;;;6711255;25;81923;-61
2024/04/09 13:37:29;;;;;;;5.47;2.35;;;27.70;44.90;;;;;;6709495;25;80422;-61
2024/04/09 13:40:30;;;;;;;43.65;6.15;;;27.70;44.60;;;;;;6712320;25;80511;-60
2024/04/09 13:43:31;;;;;;;31.55;6.00;;;27.70;44.30;;;;;;6714130;25;82216;-61
2024/04/09 13:46:31;;;;;;;57.47;9.05;;;27.70;43.90;;;;;;6713028;25;81479;-62
2024/04/09 13:49:32;;;;;;;89.05;11.48;;;27.70;43.60;;;;;;6716227;25;79223;-60
2024/04/09 13:52:33;;;;;;;99.00;13.27;;;27.70;43.20;;;;;;6710609;25;81533;-61
2024/04/09 13:55:36;;;;;;;86.32;13.77;;;27.60;43.00;;;;;;6709362;25;81493;-63
2024/04/09 13:58:37;;;;;;;86.55;11.55;;;27.70;42.90;;;;;;6711775;25;81810;-63
2024/04/09 14:01:37;;;;;;;59.17;10.20;;;27.70;43.30;;;;;;6705581;25;82780;-61
2024/04/09 14:04:38;;;;;;;63.45;10.63;;;27.70;43.20;;;;;;6712605;25;81988;-63
2024/04/09 14:07:38;;;;;;;65.60;9.40;;;27.70;43.00;;;;;;6714169;25;82100;-62
2024/04/09 14:10:39;;;;;;;53.85;9.30;;;27.70;42.90;;;;;;6715409;25;80296;-62
2024/04/09 14:13:39;;;;;;;60.75;8.57;;;27.70;42.60;;;;;;6717468;25;79402;-61
2024/04/09 14:16:40;;;;;;;54.45;8.82;;;27.70;42.70;;;;;;6712840;25;80829;-63
2024/04/09 14:19:40;;;;;;;46.58;7.90;;;27.70;42.60;;;;;;6713916;25;80983;-63
2024/04/09 14:22:42;;;;;;;58.17;9.13;;;27.70;42.10;;;;;;6710399;25;79253;-61
2024/04/09 14:25:43;;;;;;;39.70;7.35;;;27.70;42.20;;;;;;6702815;25;78978;-60
2024/04/09 14:28:43;;;;;;;26.88;5.32;;;27.70;42.20;;;;;;6712658;25;79032;-53
2024/04/09 14:31:44;;;;;;;24.63;4.70;;;27.70;41.90;;;;;;6696726;25;83890;-58
2024/04/09 14:34:45;;;;;;;31.83;4.43;;;27.70;40.90;;;;;;6710339;25;79441;-59
2024/04/09 14:37:49;;;;;;;25.85;4.35;;;27.70;40.50;;;;;;6713384;25;82268;-59
2024/04/09 14:40:50;;;;;;;49.08;7.05;;;27.80;39.20;;;;;;6714760;25;79591;-60
2024/04/09 14:43:51;;;;;;;121.85;13.50;;;27.80;38.90;;;;;;6710848;25;80067;-62
2024/04/09 14:46:52;;;;;;;90.55;9.45;;;27.80;38.90;;;;;;6705825;25;81797;-60
2024/04/09 14:49:52;;;;;;;41.78;6.93;;;27.70;37.80;;;;;;6711761;25;81157;-60
2024/04/09 14:52:53;;;;;;;33.22;4.95;;;27.80;37.10;;;;;;6680608;25;87995;-60
2024/04/09 14:55:53;;;;;;;22.27;4.45;;;27.70;37.30;;;;;;6712550;25;78920;-62
2024/04/09 14:58:54;;;;;;;38.35;4.32;;;27.80;37.10;;;;;;6709675;25;82436;-61
2024/04/09 15:01:54;;;;;;;31.85;6.18;;;27.70;37.80;;;;;;6700732;25;81099;-57
2024/04/09 15:04:55;;;;;;;30.42;5.47;;;27.70;38.30;;;;;;6691591;25;81749;-59
2024/04/09 15:07:56;;;;;;;26.45;3.95;;;27.70;38.30;;;;;;6702426;25;80294;-59
2024/04/09 15:10:57;;;;;;;28.80;5.25;;;27.70;38.70;;;;;;6706247;25;81984;-59
2024/04/09 15:13:58;;;;;;;29.20;5.28;;;27.70;39.10;;;;;;6709974;25;79245;-59
2024/04/09 15:16:58;;;;;;;36.05;5.30;;;27.70;39.50;;;;;;6694738;25;79016;-58
2024/04/09 15:19:59;;;;;;;26.58;5.40;;;27.70;39.60;;;;;;6676101;25;87936;-63
2024/04/09 15:22:59;;;;;;;22.85;4.95;;;27.60;39.60;;;;;;6704169;25;78874;-61
2024/04/09 15:26:02;;;;;;;32.67;5.72;;;27.60;39.90;;;;;;6695082;25;88564;-64
2024/04/09 15:29:02;;;;;;;29.27;5.63;;;27.60;40.00;;;;;;6707166;25;83240;-63
2024/04/09 15:32:04;;;;;;;36.90;6.28;;;27.60;39.90;;;;;;6703554;25;80481;-62
2024/04/09 15:35:06;;;;;;;35.40;5.75;;;27.60;40.10;;;;;;6706101;25;83122;-62